San Francisco International Airport
KSFO : now visible

Airfield :











YOU CAN JOIN US ON...

 
LOGIN :

Register | Disclaimer

   EN    FR    IT 

 









Legend :    VFR   Marginal VFR   IFR   Intensive IFR   Very Intensive IFR
Visi :
Ceiling :
>= 8 km
>= 3000ft
5 to 8 km
1000 to 3000 ft
1500m to 5 km
500 to 1000 ft
800 to 1500m
200 to 500 ft
< 800m
< 200 ft
Symbols :   Thunderstorms  Fog  Heavy snow  Heavy precipitations  Wind > 20 kt






- Airport Elevation : 13 ft
- IATA code : SFO


KSFO - San Francisco International

CURRENT METAR :
  • 010210Z 26021KT 10SM FEW008 SCT011 BKN013 13/09 A3009 RMK AO2 PK WND 27027/0157 T01280094

EXPIRED METARs :
  • 010156Z 27021KT 10SM FEW009 FEW015 13/09 A3010 RMK AO2 PK WND 27027/0136 SLP191 T01280094
  • 010056Z 26019KT 10SM FEW009 FEW014 16/10 A3010 RMK AO2 SLP193 T01560100
  • 312356Z 26016KT 10SM FEW015 SCT020 16/10 A3012 RMK AO2 SLP200 T01610100 10183 20144 56019

TAF KSFO
Valid from the 01 at 00:00 until the 02 at 06:00 UTC


312332Z 0100/0206 28015KT P6SM FEW020
FM010300 28012KT P6SM SKC
FM011000 28010KT P6SM FEW015
FM011800 28017G24KT P6SM SKC
FM020200 28015G21KT P6SM SKC
FM020500 31013KT P6SM SKC



MET'MAP, your aeronautical weather chart ! - Copyright ORBIFLY December 2007 - Disclaimer

ORBIFLY MET'MAP TEAM :

Programming & Development : Alexandra Zaïnal
Concept & original design : Baudouin d'Aumeries
Assistance for programming : Marc-Olivier Méhu
Technical & hardware support : Manuel Goepfert

Contact : metmap@orbifly.com




SOURCES & CREDITS :

   NOAA       Earth
Advisory